Como, Texas
Current Conditions -  °F | °C
As of 1:15 AM on Saturday 29 Nov 2014 (Local Time) from KSLR Reporting Station
Clear Clear  
Wind Chill: 58°   Ceiling: Unl
Heat Index: 58°   Visibility: 10mi
Dew Point: 51°   Wind: 17mph
Humidity: 77%   Direction: 210°SSW
Pressure: 29.99"   Gusts: 21mph
Location:  33.06°N, 95.47°W
Report Text: KSLR 290715Z AUTO 21015G18KT 10SM CLR 15/11 A2999 RMK AO2 T01470107
Loading
Personal Weather Stations






























Interactive Weather Map New forecast layout! Learn more

10-Day Weather Forecast

Advertisements
Track Severe Weather on mobile